Terminal Aerodrome Forecast
Issued by NWS Cheyenne, WY

Home | Current Version | Previous Version | Text Only | Print | Product List | Glossary On
Versions: 1 2 3 4 5 6 7 8 9 10 11 12 13 14 15 16 17 18 19 20
000
FTUS45 KCYS 220500
TAFCYS
TAF
KCYS 220520Z 2206/2306 31010G20KT P6SM VCSH SCT060 BKN080
      TEMPO 2206/2210 5SM -SHRA BKN045
     FM221000 30010KT P6SM BKN100
     FM221500 28012G23KT P6SM SCT120
     FM221900 23012G24KT P6SM BKN120
     FM230200 23008KT P6SM SCT120=

USA.gov is the U.S. government's official web portal to all federal, state and local government web resources and services.